createdAt,value
2018-09-08T00:01:09.195Z,101267.41
2018-09-08T00:03:37.650Z,101277.31
2018-09-08T00:06:06.150Z,101281.42
2018-09-08T00:08:35.654Z,101284.73
2018-09-08T00:11:04.191Z,101287.10
2018-09-08T00:13:32.617Z,101290.23
2018-09-08T00:16:06.478Z,101288.24
2018-09-08T00:18:40.164Z,101285.80
2018-09-08T00:21:13.974Z,101280.66
2018-09-08T00:23:47.687Z,101286.23
2018-09-08T00:26:21.374Z,101298.72
2018-09-08T00:29:56.091Z,101294.98
2018-09-08T00:32:24.430Z,101295.66
2018-09-08T00:34:52.767Z,101288.61
2018-09-08T00:37:22.183Z,101292.44
2018-09-08T00:39:51.676Z,101298.16
2018-09-08T00:42:20.381Z,101305.09
2018-09-08T00:44:48.756Z,101305.09
2018-09-08T00:47:17.123Z,101307.81
2018-09-08T00:49:45.440Z,101309.69
2018-09-08T00:52:13.766Z,101309.53
2018-09-08T00:54:42.100Z,101310.40
2018-09-08T00:57:10.474Z,101308.59
2018-09-08T00:59:38.824Z,101312.25
2018-09-08T01:02:07.265Z,101317.72
2018-09-08T01:04:37.404Z,101321.00
2018-09-08T01:07:09.934Z,101319.33
2018-09-08T01:09:38.513Z,101326.72
2018-09-08T01:12:06.898Z,101330.87
2018-09-08T01:14:35.230Z,101326.33
2018-09-08T01:17:03.560Z,101323.64
2018-09-08T01:19:31.887Z,101329.09
2018-09-08T01:22:00.234Z,101326.97
2018-09-08T01:24:31.248Z,101332.68
2018-09-08T01:26:59.625Z,101332.86
2018-09-08T01:29:27.977Z,101332.28
2018-09-08T01:31:56.308Z,101342.52
2018-09-08T01:34:24.628Z,101342.07
2018-09-08T01:36:53.202Z,101340.72
2018-09-08T01:39:21.781Z,101342.79
2018-09-08T01:41:50.136Z,101346.13
2018-09-08T01:44:18.484Z,101349.94
2018-09-08T01:46:47.019Z,101349.13
2018-09-08T01:49:15.358Z,101346.84
2018-09-08T01:51:43.863Z,101342.94
2018-09-08T01:54:12.381Z,101346.42
2018-09-08T01:56:40.945Z,101349.22
2018-09-08T01:59:09.556Z,101351.20
2018-09-08T02:01:37.928Z,101354.86
2018-09-08T02:04:06.263Z,101357.86
2018-09-08T02:06:34.584Z,101354.95
2018-09-08T02:09:03.167Z,101355.87
2018-09-08T02:11:31.552Z,101356.13
2018-09-08T02:13:59.915Z,101352.55
2018-09-08T02:16:28.294Z,101350.33
2018-09-08T02:18:56.664Z,101352.78
2018-09-08T02:21:25.024Z,101352.64
2018-09-08T02:23:53.339Z,101352.88
2018-09-08T02:26:21.685Z,101358.83
2018-09-08T02:28:50.159Z,101351.11
2018-09-08T02:31:18.505Z,101356.21
2018-09-08T02:33:46.859Z,101354.92
2018-09-08T02:36:15.208Z,101354.05
2018-09-08T02:38:43.588Z,101361.23
2018-09-08T02:41:11.952Z,101359.64
2018-09-08T02:43:40.306Z,101364.08
2018-09-08T02:46:08.684Z,101363.84
2018-09-08T02:48:37.044Z,101371.55
2018-09-08T02:51:04.315Z,101368.28
2018-09-08T02:53:31.583Z,101372.09
2018-09-08T02:55:58.845Z,101371.99
2018-09-08T02:58:26.100Z,101376.29
2018-09-08T03:00:53.379Z,101377.58
2018-09-08T03:03:20.650Z,101375.70
2018-09-08T03:05:47.901Z,101375.32
2018-09-08T03:08:15.151Z,101378.83
2018-09-08T03:10:42.406Z,101375.77
2018-09-08T03:13:09.659Z,101378.09
2018-09-08T03:15:36.913Z,101384.98
2018-09-08T03:18:04.165Z,101384.81
2018-09-08T03:20:31.448Z,101378.00
2018-09-08T03:22:58.701Z,101385.20
2018-09-08T03:25:25.958Z,101391.62
2018-09-08T03:27:53.234Z,101391.73
2018-09-08T03:30:20.504Z,101391.45
2018-09-08T03:32:47.753Z,101394.83
2018-09-08T03:35:15.005Z,101397.52
2018-09-08T03:37:42.261Z,101401.62
2018-09-08T03:40:09.498Z,101408.21
2018-09-08T03:42:36.764Z,101410.69
2018-09-08T03:45:04.008Z,101413.86
2018-09-08T03:47:31.255Z,101413.20
2018-09-08T03:49:58.508Z,101419.56
2018-09-08T03:52:25.896Z,101416.47
2018-09-08T03:54:53.148Z,101417.81
2018-09-08T03:57:20.400Z,101425.91
2018-09-08T03:59:47.661Z,101426.60
2018-09-08T04:02:14.904Z,101429.73
2018-09-08T04:04:43.360Z,101428.08
2018-09-08T04:07:11.690Z,101432.60
2018-09-08T04:09:40.480Z,101440.50
2018-09-08T04:12:08.840Z,101437.13
2018-09-08T04:14:37.238Z,101440.34
2018-09-08T04:17:05.604Z,101438.92
2018-09-08T04:19:34.392Z,101442.39
2018-09-08T04:22:02.768Z,101437.39
2018-09-08T04:24:31.179Z,101433.81
2018-09-08T04:26:59.517Z,101442.47
2018-09-08T04:29:27.927Z,101440.23
2018-09-08T04:31:56.250Z,101447.91
2018-09-08T04:34:24.628Z,101450.47
2018-09-08T04:36:53.414Z,101456.55
2018-09-08T04:39:21.763Z,101463.34
2018-09-08T04:41:50.108Z,101460.52
2018-09-08T04:44:18.460Z,101459.77
2018-09-08T04:46:47.069Z,101464.69
2018-09-08T04:49:15.415Z,101472.70
2018-09-08T04:51:43.815Z,101468.14
2018-09-08T04:54:12.171Z,101475.28
2018-09-08T04:56:40.503Z,101471.71
2018-09-08T04:59:08.849Z,101482.42
2018-09-08T05:01:37.204Z,101480.52
2018-09-08T05:04:05.520Z,101480.00
2018-09-08T05:06:33.864Z,101486.19
2018-09-08T05:09:02.212Z,101486.45
2018-09-08T05:11:30.570Z,101490.91
2018-09-08T05:13:59.338Z,101493.20
2018-09-08T05:16:27.685Z,101495.36
2018-09-08T05:18:56.033Z,101495.91
2018-09-08T05:21:24.381Z,101504.39
2018-09-08T05:23:52.721Z,101504.39
2018-09-08T05:26:21.052Z,101501.16
2018-09-08T05:28:49.480Z,101501.82
2018-09-08T05:31:17.806Z,101496.91
2018-09-08T05:33:46.199Z,101502.48
2018-09-08T05:36:14.599Z,101501.45
2018-09-08T05:38:42.958Z,101508.58
2018-09-08T05:41:11.356Z,101497.30
2018-09-08T05:43:39.687Z,101495.30
2018-09-08T05:46:08.046Z,101497.11
2018-09-08T05:48:36.852Z,101499.50
2018-09-08T05:51:05.254Z,101511.09
2018-09-08T05:53:33.809Z,101513.20
2018-09-08T05:56:02.124Z,101511.81
2018-09-08T05:58:30.532Z,101516.75
2018-09-08T06:00:59.484Z,101515.98
2018-09-08T06:03:27.854Z,101511.70
2018-09-08T06:05:56.222Z,101518.55
2018-09-08T06:08:24.535Z,101517.09
2018-09-08T06:10:52.880Z,101509.38
2018-09-08T06:13:21.206Z,101514.48
2018-09-08T06:15:49.534Z,101514.08
2018-09-08T06:18:18.379Z,101513.80
2018-09-08T06:20:46.708Z,101522.23
2018-09-08T06:23:15.048Z,101523.81
2018-09-08T06:25:43.413Z,101519.89
2018-09-08T06:28:11.774Z,101526.48
2018-09-08T06:30:40.115Z,101531.27
2018-09-08T06:33:08.487Z,101528.84
2018-09-08T06:35:36.839Z,101534.72
2018-09-08T06:38:05.213Z,101535.41
2018-09-08T06:40:33.758Z,101544.31
2018-09-08T06:43:02.114Z,101535.23
2018-09-08T06:45:30.501Z,101538.91
2018-09-08T06:47:59.329Z,101536.30
2018-09-08T06:50:27.711Z,101542.09
2018-09-08T06:52:56.209Z,101545.07
2018-09-08T06:55:24.562Z,101535.02
2018-09-08T06:57:52.953Z,101543.70
2018-09-08T07:00:21.297Z,101541.81
2018-09-08T07:02:49.628Z,101538.02
2018-09-08T07:05:17.976Z,101538.30
2018-09-08T07:07:46.324Z,101533.64
2018-09-08T07:10:14.701Z,101541.82
2018-09-08T07:12:43.081Z,101544.12
2018-09-08T07:15:11.795Z,101545.35
2018-09-08T07:17:40.157Z,101548.42
2018-09-08T07:20:08.724Z,101549.45
2018-09-08T07:22:37.142Z,101546.56
2018-09-08T07:25:06.582Z,101540.90
2018-09-08T07:27:34.921Z,101542.70
2018-09-08T07:30:03.262Z,101547.39
2018-09-08T07:32:31.616Z,101556.80
2018-09-08T07:34:59.961Z,101549.09
2018-09-08T07:37:28.379Z,101548.09
2018-09-08T07:39:56.679Z,101551.53
2018-09-08T07:42:25.020Z,101552.39
2018-09-08T07:44:53.422Z,101541.84
2018-09-08T07:47:21.804Z,101537.09
2018-09-08T07:49:50.168Z,101543.94
2018-09-08T07:52:18.647Z,101550.43
2018-09-08T07:54:47.012Z,101548.70
2018-09-08T07:57:15.367Z,101555.67
2018-09-08T07:59:43.745Z,101551.55
2018-09-08T08:02:12.127Z,101559.55
2018-09-08T08:04:40.476Z,101558.79
2018-09-08T08:07:14.201Z,101548.18
2018-09-08T08:09:43.668Z,101555.31
2018-09-08T08:12:12.264Z,101554.73
2018-09-08T08:14:40.848Z,101551.70
2018-09-08T08:17:09.361Z,101555.77
2018-09-08T08:19:38.120Z,101562.80
2018-09-08T08:22:06.503Z,101555.73
2018-09-08T08:24:34.853Z,101555.42
2018-09-08T08:27:03.182Z,101556.31
2018-09-08T08:29:31.536Z,101556.89
2018-09-08T08:31:59.882Z,101556.59
2018-09-08T08:34:28.253Z,101557.27
2018-09-08T08:36:56.667Z,101556.64
2018-09-08T08:39:25.128Z,101558.32
2018-09-08T08:41:53.484Z,101561.61
2018-09-08T08:44:26.755Z,101562.32
2018-09-08T08:46:55.100Z,101558.48
2018-09-08T08:49:23.448Z,101568.14
2018-09-08T08:52:03.125Z,101568.82
2018-09-08T08:54:35.287Z,101564.78
2018-09-08T08:57:03.849Z,101564.47
2018-09-08T08:59:33.044Z,101561.83
2018-09-08T09:02:01.476Z,101568.82
2018-09-08T09:04:30.375Z,101561.95
2018-09-08T09:13:58.905Z,101574.02
2018-09-08T09:16:27.324Z,101564.61
2018-09-08T09:19:07.163Z,101568.07
2018-09-08T09:21:46.883Z,101565.22
2018-09-08T09:24:26.969Z,101563.09
2018-09-08T09:26:54.872Z,101574.37
2018-09-08T09:29:23.259Z,101564.69
2018-09-08T09:31:51.616Z,101567.66
2018-09-08T09:34:20.005Z,101559.59
2018-09-08T09:36:48.458Z,101557.42
2018-09-08T09:39:16.911Z,101555.66
2018-09-08T09:41:45.246Z,101549.70
2018-09-08T09:44:15.131Z,101546.70
2018-09-08T09:46:43.596Z,101548.66
2018-09-08T09:49:11.949Z,101546.67
2018-09-08T09:51:40.371Z,101545.67
2018-09-08T09:54:08.755Z,101541.33
2018-09-08T09:56:37.193Z,101537.67
2018-09-08T09:59:05.597Z,101535.94
2018-09-08T10:01:39.278Z,101542.37
2018-09-08T10:04:07.685Z,101533.89
2018-09-08T10:06:36.157Z,101523.62
2018-09-08T10:09:05.578Z,101529.89
2018-09-08T10:11:33.954Z,101527.21
2018-09-08T10:14:02.336Z,101521.89
2018-09-08T10:16:30.718Z,101525.40
2018-09-08T10:18:59.150Z,101529.98
2018-09-08T10:21:27.476Z,101533.00
2018-09-08T10:24:05.153Z,101538.19
2018-09-08T10:26:24.270Z,101537.80
2018-09-08T10:28:52.739Z,101529.73
2018-09-08T10:31:21.119Z,101526.06
2018-09-08T10:33:49.500Z,101530.47
2018-09-08T10:36:17.899Z,101539.58
2018-09-08T10:38:46.231Z,101537.11
2018-09-08T10:41:14.584Z,101537.12
2018-09-08T10:43:42.918Z,101539.15
2018-09-08T10:46:11.340Z,101534.47
2018-09-08T10:48:39.705Z,101533.30
2018-09-08T10:51:50.553Z,101545.30
2018-09-08T10:54:18.986Z,101540.50
2018-09-08T10:56:47.383Z,101546.36
2018-09-08T10:59:15.713Z,101555.36
2018-09-08T11:01:44.247Z,101546.22
2018-09-08T11:04:12.495Z,101553.57
2018-09-08T11:06:40.840Z,101552.14
2018-09-08T11:09:09.234Z,101561.00
2018-09-08T11:11:37.582Z,101559.55
2018-09-08T11:14:05.935Z,101557.75
2018-09-08T11:16:34.314Z,101561.08
2018-09-08T11:19:02.664Z,101549.78
2018-09-08T11:21:31.513Z,101554.77
2018-09-08T11:23:59.851Z,101560.55
2018-09-08T11:26:28.279Z,101558.22
2018-09-08T11:28:56.679Z,101564.81
2018-09-08T11:31:25.025Z,101565.64
2018-09-08T11:33:53.382Z,101558.87
2018-09-08T11:36:21.760Z,101568.05
2018-09-08T11:38:50.125Z,101572.05
2018-09-08T11:41:18.471Z,101561.12
2018-09-08T11:43:46.847Z,101559.02
2018-09-08T11:46:15.211Z,101567.64
2018-09-08T11:48:43.602Z,101565.89
2018-09-08T11:51:12.093Z,101567.86
2018-09-08T11:53:40.744Z,101564.28
2018-09-08T11:56:09.078Z,101558.56
2018-09-08T11:58:37.460Z,101564.89
2018-09-08T12:01:05.928Z,101559.20
2018-09-08T12:03:34.295Z,101556.41
2018-09-08T12:06:02.652Z,101560.89
2018-09-08T12:08:31.046Z,101563.27
2018-09-08T12:10:59.400Z,101564.72
2018-09-08T12:13:27.929Z,101569.80
2018-09-08T12:15:56.304Z,101564.96
2018-09-08T12:18:24.844Z,101570.16
2018-09-08T12:20:53.424Z,101567.30
2018-09-08T12:23:21.822Z,101558.20
2018-09-08T12:25:50.167Z,101555.13
2018-09-08T12:28:18.541Z,101552.79
2018-09-08T12:30:46.998Z,101556.23
2018-09-08T12:33:15.319Z,101554.73
2018-09-08T12:35:43.680Z,101559.56
2018-09-08T12:38:12.008Z,101561.66
2018-09-08T12:40:40.445Z,101561.98
2018-09-08T12:43:08.890Z,101556.29
2018-09-08T12:45:37.248Z,101561.25
2018-09-08T12:48:05.697Z,101557.92
2018-09-08T12:50:34.060Z,101555.20
2018-09-08T12:53:02.421Z,101555.06
2018-09-08T12:55:30.886Z,101552.09
2018-09-08T12:57:59.232Z,101555.83
2018-09-08T13:00:27.714Z,101560.93
2018-09-08T13:02:56.080Z,101556.97
2018-09-08T13:05:24.437Z,101561.93
2018-09-08T13:07:52.796Z,101552.83
2018-09-08T13:10:21.124Z,101560.42
2018-09-08T13:12:49.450Z,101550.23
2018-09-08T13:15:18.636Z,101547.00
2018-09-08T13:17:46.992Z,101548.77
2018-09-08T13:20:15.349Z,101549.27
2018-09-08T13:22:43.996Z,101545.19
2018-09-08T13:25:12.374Z,101541.06
2018-09-08T13:27:40.709Z,101535.73
2018-09-08T13:30:09.068Z,101535.13
2018-09-08T13:32:37.451Z,101536.26
2018-09-08T13:35:05.817Z,101533.52
2018-09-08T13:37:34.146Z,101538.63
2018-09-08T13:40:02.597Z,101536.73
2018-09-08T13:42:30.868Z,101535.13
2018-09-08T13:44:59.221Z,101530.79
2018-09-08T13:47:27.630Z,101537.83
2018-09-08T13:49:56.129Z,101534.00
2018-09-08T13:52:24.476Z,101540.56
2018-09-08T13:54:52.868Z,101530.66
2018-09-08T13:57:21.262Z,101537.97
2018-09-08T13:59:49.631Z,101537.60
2018-09-08T14:02:18.214Z,101537.70
2018-09-08T14:04:46.593Z,101535.80
2018-09-08T14:07:14.960Z,101535.33
2018-09-08T14:09:43.361Z,101533.66
2018-09-08T14:12:11.712Z,101529.37
2018-09-08T14:14:40.076Z,101538.33
2018-09-08T14:17:08.474Z,101530.10
2018-09-08T14:19:36.837Z,101527.37
2018-09-08T14:22:05.214Z,101523.50
2018-09-08T14:24:33.580Z,101523.73
2018-09-08T14:27:01.983Z,101523.97
2018-09-08T14:29:30.373Z,101521.63
2018-09-08T14:31:58.740Z,101521.36
2018-09-08T14:34:27.068Z,101520.56
2018-09-08T14:36:55.415Z,101521.79
2018-09-08T14:39:23.769Z,101516.55
2018-09-08T14:41:52.090Z,101527.64
2018-09-08T14:44:20.526Z,101518.64
2018-09-08T14:46:48.889Z,101512.17
2018-09-08T14:49:17.251Z,101519.27
2018-09-08T14:51:45.601Z,101516.54
2018-09-08T14:54:13.953Z,101502.98
2018-09-08T14:56:42.390Z,101506.34
2018-09-08T14:59:10.842Z,101512.67
2018-09-08T15:01:39.268Z,101517.27
2018-09-08T15:04:07.727Z,101514.77
2018-09-08T15:06:36.120Z,101523.45
2018-09-08T15:09:06.512Z,101525.91
2018-09-08T15:11:35.080Z,101528.40
2018-09-08T15:14:03.459Z,101524.90
2018-09-08T15:16:32.042Z,101522.94
2018-09-08T15:19:00.409Z,101521.80
2018-09-08T15:21:28.777Z,101519.66
2018-09-08T15:23:57.811Z,101522.25
2018-09-08T15:26:26.362Z,101519.16
2018-09-08T15:28:54.739Z,101522.73
2018-09-08T15:31:23.220Z,101528.42
2018-09-08T15:33:51.631Z,101525.17
2018-09-08T15:36:19.975Z,101521.67
2018-09-08T15:38:48.378Z,101525.27
2018-09-08T15:41:16.770Z,101529.34
2018-09-08T15:43:45.180Z,101526.39
2018-09-08T15:46:13.531Z,101524.55
2018-09-08T15:48:41.890Z,101526.41
2018-09-08T15:51:10.287Z,101532.14
2018-09-08T15:53:38.711Z,101523.97
2018-09-08T15:56:07.192Z,101522.36
2018-09-08T15:58:36.050Z,101521.61
2018-09-08T16:01:04.554Z,101521.96
2018-09-08T16:03:32.925Z,101519.86
2018-09-08T16:06:01.315Z,101522.44
2018-09-08T16:08:29.745Z,101522.44
2018-09-08T16:10:58.214Z,101522.69
2018-09-08T16:13:26.724Z,101517.70
2018-09-08T16:15:55.062Z,101513.61
2018-09-08T16:18:23.449Z,101512.12
2018-09-08T16:20:51.792Z,101503.56
2018-09-08T16:23:20.271Z,101501.57
2018-09-08T16:25:48.668Z,101504.80
2018-09-08T16:28:18.113Z,101505.92
2018-09-08T16:30:46.711Z,101505.89
2018-09-08T16:33:15.173Z,101512.30
2018-09-08T16:35:43.541Z,101515.17
2018-09-08T16:38:11.919Z,101507.10
2018-09-08T16:40:40.329Z,101501.28
2018-09-08T16:43:08.708Z,101507.95
2018-09-08T16:45:37.313Z,101501.34
2018-09-08T16:48:05.924Z,101500.83
2018-09-08T16:50:34.340Z,101500.45
2018-09-08T16:53:02.834Z,101505.82
2018-09-08T16:55:31.284Z,101501.20
2018-09-08T16:58:00.227Z,101502.50
2018-09-08T17:00:28.709Z,101508.08
2018-09-08T17:02:57.140Z,101511.36
2018-09-08T17:05:25.516Z,101516.28
2018-09-08T17:07:53.876Z,101520.05
2018-09-08T17:10:22.243Z,101518.41
2018-09-08T17:12:50.586Z,101523.36
2018-09-08T17:15:18.932Z,101520.07
2018-09-08T17:17:47.279Z,101520.66
2018-09-08T17:20:15.656Z,101519.91
2018-09-08T17:22:44.032Z,101528.87
2018-09-08T17:25:12.422Z,101522.71
2018-09-08T17:27:41.303Z,101526.25
2018-09-08T17:30:09.720Z,101526.94
2018-09-08T17:32:38.165Z,101535.86
2018-09-08T17:35:06.715Z,101534.70
2018-09-08T17:37:35.060Z,101541.28
2018-09-08T17:40:03.372Z,101544.34
2018-09-08T17:42:31.715Z,101544.77
2018-09-08T17:45:00.098Z,101552.76
2018-09-08T17:47:28.446Z,101549.50
2018-09-08T17:49:56.788Z,101548.14
2018-09-08T17:52:25.131Z,101550.66
2018-09-08T17:54:53.474Z,101552.70
2018-09-08T17:57:21.889Z,101559.70
2018-09-08T17:59:50.230Z,101558.27
2018-09-08T18:02:19.134Z,101569.53
2018-09-08T18:04:47.488Z,101570.70
2018-09-08T18:07:17.696Z,101571.50
2018-09-08T18:09:46.364Z,101571.69
2018-09-08T18:12:14.967Z,101572.19
2018-09-08T18:14:43.453Z,101574.14
2018-09-08T18:17:12.346Z,101573.84
2018-09-08T18:19:40.749Z,101580.06
2018-09-08T18:22:09.396Z,101590.16
2018-09-08T18:24:37.800Z,101587.84
2018-09-08T18:27:06.365Z,101585.47
2018-09-08T18:29:34.694Z,101592.87
2018-09-08T18:32:03.054Z,101599.08
2018-09-08T18:34:32.079Z,101603.75
2018-09-08T18:37:00.439Z,101600.82
2018-09-08T18:39:28.795Z,101602.56
2018-09-08T18:41:57.254Z,101604.09
2018-09-08T18:44:25.598Z,101608.66
2018-09-08T18:46:53.950Z,101601.98
2018-09-08T18:49:22.323Z,101595.34
2018-09-08T18:51:50.768Z,101606.98
2018-09-08T18:54:19.126Z,101604.05
2018-09-08T18:56:47.476Z,101604.22
2018-09-08T18:59:15.816Z,101603.84
2018-09-08T19:01:44.697Z,101613.83
2018-09-08T19:04:13.146Z,101615.09
2018-09-08T19:06:41.726Z,101619.03
2018-09-08T19:09:10.212Z,101613.81
2018-09-08T19:11:38.591Z,101621.26
2018-09-08T19:14:11.095Z,101621.26
2018-09-08T19:16:39.445Z,101627.35
2018-09-08T19:19:07.807Z,101626.28
2018-09-08T19:21:36.137Z,101616.50
2018-09-08T19:24:09.864Z,101621.75
2018-09-08T19:26:38.389Z,101622.73
2018-09-08T19:29:11.956Z,101622.02
2018-09-08T19:31:40.459Z,101622.75
2018-09-08T19:34:08.850Z,101628.28
2018-09-08T19:36:37.194Z,101628.11
2018-09-08T19:39:08.046Z,101631.59
2018-09-08T19:41:36.868Z,101635.00
2018-09-08T19:44:05.247Z,101631.03
2018-09-08T19:46:39.082Z,101633.33
2018-09-08T19:49:07.522Z,101641.36
2018-09-08T19:51:36.853Z,101642.84
2018-09-08T19:54:05.209Z,101643.77
2018-09-08T19:56:39.010Z,101641.20
2018-09-08T19:59:07.349Z,101645.84
2018-09-08T20:01:35.733Z,101644.42
2018-09-08T20:04:04.116Z,101651.45
2018-09-08T20:06:32.529Z,101647.38
2018-09-08T20:09:00.871Z,101648.06
2018-09-08T20:11:29.252Z,101644.44
2018-09-08T20:13:57.630Z,101643.88
2018-09-08T20:16:26.107Z,101646.69
2018-09-08T20:18:54.455Z,101650.77
2018-09-08T20:21:22.803Z,101645.28
2018-09-08T20:23:51.182Z,101651.03
2018-09-08T20:26:19.540Z,101657.69
2018-09-08T20:28:48.001Z,101650.65
2018-09-08T20:31:16.271Z,101654.55
2018-09-08T20:33:44.640Z,101656.39
2018-09-08T20:36:13.004Z,101655.47
2018-09-08T20:38:41.410Z,101653.46
2018-09-08T20:41:09.765Z,101646.75
2018-09-08T20:43:38.186Z,101641.03
2018-09-08T20:46:06.800Z,101646.91
2018-09-08T20:48:35.245Z,101643.06
2018-09-08T20:51:03.610Z,101649.30
2018-09-08T20:53:32.005Z,101644.26
2018-09-08T20:56:00.388Z,101643.70
2018-09-08T20:58:28.721Z,101635.38
2018-09-08T21:00:57.129Z,101641.60
2018-09-08T21:03:25.477Z,101642.86
2018-09-08T21:05:53.831Z,101644.15
2018-09-08T21:08:22.210Z,101647.08
2018-09-08T21:10:50.694Z,101645.72
2018-09-08T21:13:19.036Z,101645.72
2018-09-08T21:15:47.557Z,101637.59
2018-09-08T21:18:16.343Z,101635.09
2018-09-08T21:20:44.804Z,101634.02
2018-09-08T21:23:13.305Z,101636.66
2018-09-08T21:25:41.653Z,101635.56
2018-09-08T21:28:10.064Z,101644.56
2018-09-08T21:30:38.645Z,101642.17
2018-09-08T21:33:07.151Z,101642.56
2018-09-08T21:35:35.506Z,101641.97
2018-09-08T21:38:03.883Z,101642.77
2018-09-08T21:40:32.233Z,101640.23
2018-09-08T21:43:00.579Z,101640.93
2018-09-08T21:45:28.926Z,101641.25
2018-09-08T21:47:57.249Z,101641.42
2018-09-08T21:50:25.708Z,101635.61
2018-09-08T21:52:54.051Z,101635.12
2018-09-08T21:55:22.390Z,101633.28
2018-09-08T21:57:50.760Z,101629.38
2018-09-08T22:00:19.167Z,101627.64
2018-09-08T22:02:47.500Z,101634.10
2018-09-08T22:05:15.862Z,101631.11
2018-09-08T22:07:44.255Z,101627.03
2018-09-08T22:10:12.630Z,101630.20
2018-09-08T22:12:40.965Z,101629.75
2018-09-08T22:15:09.378Z,101625.98
2018-09-08T22:17:37.719Z,101628.08
2018-09-08T22:20:06.124Z,101624.41
2018-09-08T22:22:34.546Z,101624.02
2018-09-08T22:25:03.012Z,101627.51
2018-09-08T22:27:31.364Z,101625.38
2018-09-08T22:29:59.852Z,101623.97
2018-09-08T22:32:28.204Z,101624.36
2018-09-08T22:34:56.609Z,101623.00
2018-09-08T22:37:24.956Z,101623.97
2018-09-08T22:39:53.290Z,101626.78
2018-09-08T22:42:21.620Z,101626.85
2018-09-08T22:44:49.918Z,101632.05
2018-09-08T22:47:18.239Z,101629.73
2018-09-08T22:49:46.669Z,101636.51
2018-09-08T22:52:15.001Z,101633.13
2018-09-08T22:54:43.323Z,101638.55
2018-09-08T22:57:11.649Z,101640.06
2018-09-08T22:59:40.006Z,101636.06
2018-09-08T23:02:08.404Z,101634.42
2018-09-08T23:04:36.761Z,101625.75
2018-09-08T23:07:05.164Z,101629.16
2018-09-08T23:09:33.510Z,101636.36
2018-09-08T23:12:01.842Z,101634.46
2018-09-08T23:14:30.168Z,101640.17
2018-09-08T23:16:58.547Z,101633.59
2018-09-08T23:19:26.893Z,101626.33
2018-09-08T23:21:55.248Z,101628.11
2018-09-08T23:24:23.652Z,101621.23
2018-09-08T23:26:51.962Z,101620.84
2018-09-08T23:29:20.392Z,101622.36
2018-09-08T23:31:48.736Z,101621.01
2018-09-08T23:34:17.229Z,101617.81
2018-09-08T23:36:45.620Z,101616.45
2018-09-08T23:39:14.065Z,101619.91
2018-09-08T23:41:42.490Z,101629.30
2018-09-08T23:44:10.845Z,101631.46
2018-09-08T23:46:39.150Z,101634.08
2018-09-08T23:49:07.520Z,101632.20
2018-09-08T23:51:35.879Z,101627.56
2018-09-08T23:54:04.222Z,101636.50
2018-09-08T23:56:32.613Z,101633.23
2018-09-08T23:59:02.065Z,101640.34
